SNOW

Not for real navigation. The accuracy of this data is not assured See disclaimer for more information



ICAO NAME COUNTRY WIND Kt GUST Kt VIS m TEMP/DEW C BARO METAR
OITZ Zanjan Iran 14 0 300 0/0 29.83 OITZ 220900Z 08014KT 0300 SN BR SCT010 SCT020CB BKN030 OVC050 00/M00 Q1010 RETSGR
OITR Orumieh Iran 4 0 600 0/0 29.74 OITR 220930Z 30004KT 0600 SN SCT010 SCT025CB SCT030 OVC070 00/00 Q1007
PACZ Cape Romanzof, Cape Romanzof L AK United States 33 39 800 -12/-13 29.59 PACZ 220937Z AUTO 35033G39KT 340V070 0.5SM -SN FG BKN010 M12/M13 A2959 RMK AO2 SLP034
PABA Barter Island, Barter Island L AK United States 0 0 800 -13/-15 29.87 PABA 220919Z 00000KT 0.5SM -SN FZFG OVC004 M13/M15 A2987 RMK AO2 P0000 FZRANO
LTCW 7 0 1100 -1/-1 29.77 LTCW 220850Z 10007KT 1100 R11/1100N R29/1100N SHSNRA BR FEW004 BKN020 M01/M01 Q1008

Show more